Kent, Iowa
Current Conditions -  °F | °C
As of 6:35 PM on Saturday 20 Dec 2014 (Local Time) from KCSQ Reporting Station
Haze Haze  
Wind Chill: 30°   Ceiling: 900
Heat Index: 34°   Visibility: 4mi
Dew Point: 34°   Wind: 5mph
Humidity: 100%   Direction: 170°S
Pressure: 30.11"   Gusts: NA
Location:  40.8856°N, 94.5654°W
Report Text: KCSQ 210035Z AUTO 17004KT 4SM BR OVC009 01/01 A3011 RMK AO2
Loading
Personal Weather Stations






























Interactive Weather Map New forecast layout! Learn more

10-Day Weather Forecast

Advertisements
Track Severe Weather on mobile